Tiempo atmosférico en la estación meteorológica de Agaete, Las Palmas (5 m.)



Fecha
DESCASC
Temp. máxima en grados centígrados (hora)
DESCASC
Temp. mínima en grados centígrados (hora)
DESCASC
Temp. media en grados centígrados
DESCASC
Racha de viento máxima en m/sg (hora)
DESCASC
Velocidad máxima media en intervalos de 10 minutos(hora)
DESCASC
Precipitaciones diarias en mm
DESCASC
Precipitaciones de 00:00 a 06:00 en mm
DESCASC
Precipitaciones de 06:00 a 12:00 en mm
DESCASC
Precipitaciones de 12:00 a 18:00 en mm
DESCASC
Precipitaciones de 18:00 a 24:00 en mm
DESCASC
22-04-2019 21.3 (16:40) 17.8 (07:40) 19.5 11.94 (13:10) 7.5 (14:20) 0 0 0 0 0
21-04-2019 21.1 (12:50) 17.3 (07:40) 19.2 9.72 (16:10) 6.94 (14:30) 0.2 0 0.2 0 0
20-04-2019 20.4 (16:00) 16.2 (11:10) 18.3 12.5 (16:10) 8.89 (12:20) 0.4 0 0 0 0.4
19-04-2019 20.4 (12:10) 17.4 (04:30) 18.9 12.22 (13:30) 7.22 (15:40) 0 0 0 0 0
18-04-2019 20.6 (16:30) 17.6 (00:00) 19.1 11.94 (19:10) 6.67 (17:30) 0 0 0 0 0
17-04-2019 22.7 (09:50) 17.4 (00:00) 20.1 10.28 (17:10) 7.78 (17:00) 0 0 0 0 0
16-04-2019 23.3 (12:20) 17.9 (00:00) 20.6 10.83 (00:10) 6.67 (00:20) 0 0 0 0 0
15-04-2019 23.8 (15:20) 18 (00:00) 20.9 15.56 (18:10) 9.72 (18:20) 0 0 0 0 0
14-04-2019 22.2 (09:50) 16.9 (00:00) 19.6 15.28 (00:10) 9.17 (00:50) 0 0 0 0 0
13-04-2019 21.5 (16:00) 17.6 (00:00) 19.6 15.83 (15:10) 9.17 (13:40) 0 0 0 0 0
12-04-2019 20.9 (14:10) 17.1 (00:00) 19 14.44 (16:10) 7.22 (13:20) 0 0 0 0 0
11-04-2019 21.2 (15:10) 17.4 (00:00) 19.3 14.72 (12:10) 7.78 (16:00) 0 0 0 0 0
10-04-2019 21 (13:10) 16.9 (00:00) 18.9 12.22 (18:20) 7.22 (13:50) 0 0 0 0 0
09-04-2019 21.2 (11:20) 17.2 (00:00) 19.2 10.83 (12:20) 6.67 (11:50) 0 0 0 0 0
08-04-2019 20.5 (13:40) 17 (00:00) 18.8 9.72 (18:10) 6.94 (17:20) 0 0 0 0 0
07-04-2019 20.4 (19:00) 15.7 (00:00) 18 10.83 (16:10) 7.22 (16:00) 0 0 0 0 0
06-04-2019 19.7 (16:50) 16.2 (00:00) 18 13.33 (01:50) 11.11 (01:50) 0 0 0 0 0
05-04-2019 20.6 (15:10) 16.1 (00:00) 18.4 11.94 (17:10) 9.44 (16:40) 0 0 0 0 0
04-04-2019 20.5 (17:20) 13.9 (00:00) 17.2 10.83 (22:00) 7.22 (16:20) 11.8 8.6 3 0.2 0
03-04-2019 22.4 (18:50) 16.3 (00:00) 19.3 8.89 (23:50) 7.22 (23:50) 0.8 0.8 0 0 0
02-04-2019 20.9 (13:30) 16.7 (00:00) 18.8 7.22 (19:10) 5.28 (17:40) 0 0 0 0 0
01-04-2019 21.8 (14:30) 16.3 (00:00) 19 8.06 (12:10) 6.11 (11:40) 0 0 0 0 0
31-03-2019 21.8 (10:00) 15.7 (00:00) 18.7 7.5 (07:20) 5 (07:20) 0 0 0 0 0
30-03-2019 20.6 (14:50) 15.4 (00:00) 18 10.83 (15:10) 7.22 (15:10) 0 0 0 0 0
29-03-2019 21.2 (12:50) 15.7 (00:00) 18.5 7.22 (16:10) 5 (16:50) 4.4 0 0 0 4.4
28-03-2019 21.3 (10:10) 15.7 (00:00) 18.5 7.22 (13:10) 5.83 (14:50) 0 0 0 0 0
27-03-2019 20.5 (14:00) 17.2 (00:00) 18.9 7.78 (15:10) 5.56 (14:50) 0.2 0.2 0 0 0
26-03-2019 20.2 (13:00) 14.7 (00:00) 17.5 8.89 (16:10) 6.39 (15:30) 0 0 0 0 0
25-03-2019 19.3 (10:40) 15.3 (00:00) 17.3 9.17 (13:10) 5.56 (13:10) 2.2 0 0 2.2 0

Gráficas

Temp. máximas Temp. mínimas Temp. medias Precipitaciones Rachas de viento máximas Velocidades máximas media en intervalos de 10 minutos

Datos horarios

Fecha y hora oficial Temperatura (ºC) Velocidad del viento (km/h) Dirección del viento Racha (km/h) Dirección de racha Precipitación (mm) Presión (hPa) Tendencia (hPa) Humedad (%)
2019-04-23 23:00:00 18.4 7 Nordeste 17 Norte 0 -- -- 65
2019-04-23 22:00:00 18.4 6 Nordeste 18 Nordeste 0 -- -- 66
2019-04-23 21:00:00 18.5 12 Norte 21 Norte 0 -- -- 62
2019-04-23 20:00:00 18.9 12 Norte 25 Norte 0 -- -- 65
2019-04-23 19:00:00 19.2 12 Norte 20 Norte 0 -- -- 62
2019-04-23 18:00:00 19.2 12 Norte 17 Norte 0 -- -- 64
2019-04-23 17:00:00 18.9 13 Norte 31 Norte 0 -- -- 67
2019-04-23 16:00:00 18.8 18 Norte 30 Norte 0 -- -- 74
2019-04-23 15:00:00 19.3 20 Norte 37 Norte 0 -- -- 73
2019-04-23 14:00:00 19.6 22 Norte 37 Norte 0 -- -- 74
2019-04-23 13:00:00 20.9 24 Norte 32 Norte 0 -- -- 69
2019-04-23 12:00:00 21.5 5 Norte 10 Noroeste 0 -- -- 51
2019-04-23 11:00:00 21.2 5 Este 17 Sudeste 0 -- -- 51
2019-04-23 10:00:00 20.3 7 Norte 24 Norte 0 -- -- 59
2019-04-23 09:00:00 19 13 Nordeste 24 Norte 0 -- -- 72
2019-04-23 08:00:00 18.9 7 Nordeste 21 Este 0 -- -- 68
2019-04-23 07:00:00 18.6 8 Nordeste 19 Este 0 -- -- 71
2019-04-23 06:00:00 18.3 7 Este 16 Nordeste 0 -- -- 70
2019-04-23 05:00:00 18.6 6 Nordeste 15 Nordeste 0 -- -- 67
2019-04-23 04:00:00 18.6 8 Este 16 Norte 0 -- -- 69
2019-04-23 03:00:00 18.8 5 Nordeste 19 Este 0 -- -- 68
2019-04-23 02:00:00 18.6 8 Nordeste 21 Nordeste 0 -- -- 68
2019-04-23 01:00:00 18.9 12 Nordeste 27 Nordeste 0 -- -- 69
2019-04-23 00:00:00 18.9 12 Nordeste 27 Nordeste 0 -- -- 68
2019-04-22 23:00:00 19 15 Nordeste 30 Norte 0 -- -- 69
2019-04-22 22:00:00 18.8 16 Norte 27 Norte 0 -- -- 70
2019-04-22 21:00:00 19.1 14 Norte 29 Norte 0 -- -- 74
2019-04-22 20:00:00 19.6 18 Norte 27 Norte 0 -- -- 74
2019-04-22 19:00:00 20.1 22 Norte 28 Norte 0 -- -- 72
2019-04-22 18:00:00 20.5 24 Norte 36 Norte 0 -- -- 68
2019-04-22 17:00:00 21.1 21 Norte 33 Norte 0 -- -- 62
2019-04-22 16:00:00 20.2 26 Norte 33 Norte 0 -- -- 68
2019-04-22 15:00:00 20.7 24 Norte 39 Norte 0 -- -- 67
2019-04-22 14:00:00 20.1 26 Norte 43 Norte 0 -- -- 68
2019-04-22 13:00:00 20.1 26 Norte 32 Norte 0 -- -- 66
2019-04-22 12:00:00 20.1 17 Norte 26 Norte 0 -- -- 61
2019-04-22 11:00:00 19.1 19 Norte 25 Norte 0 -- -- 69
2019-04-22 10:00:00 18.9 12 Nordeste 22 Norte 0 -- -- 66
2019-04-22 09:00:00 18.6 12 Nordeste 24 Este 0 -- -- 69
2019-04-22 08:00:00 17.8 12 Este 21 Sudeste 0 -- -- 67
2019-04-22 07:00:00 18.4 9 Nordeste 20 Norte 0 -- -- 69
2019-04-22 06:00:00 18.6 10 Sudeste 24 Sudeste 0 -- -- 66
2019-04-22 05:00:00 18.4 9 Nordeste 23 Nordeste 0 -- -- 67
2019-04-22 04:00:00 18.2 7 Este 20 Sudeste 0 -- -- 67
2019-04-22 03:00:00 18.1 10 Nordeste 21 Nordeste 0 -- -- 72
2019-04-22 02:00:00 18.2 8 Este 20 Este 0 -- -- 66
2019-04-22 01:00:00 18.5 10 Este 20 Este 0 -- -- 68
2019-04-22 00:00:00 18.6 9 Nordeste 18 Este 0 -- -- 70
2019-04-21 23:00:00 18.7 8 Este 21 Nordeste 0 -- -- 68
2019-04-21 22:00:00 18.9 11 Nordeste 18 Nordeste 0 -- -- 70
2019-04-21 21:00:00 18.9 10 Nordeste 23 Nordeste 0 -- -- 70
2019-04-21 20:00:00 19.6 12 Nordeste 25 Norte 0 -- -- 65
2019-04-21 19:00:00 20.5 16 Norte 24 Norte 0 -- -- 63
2019-04-21 18:00:00 20.2 11 Nordeste 21 Norte 0 -- -- 63
2019-04-21 17:00:00 19.3 15 Norte 35 Norte 0 -- -- 70
2019-04-21 16:00:00 19.6 23 Norte 31 Norte 0 -- -- 71
2019-04-21 15:00:00 19.9 24 Norte 33 Norte 0 -- -- 68
2019-04-21 14:00:00 20.1 23 Norte 31 Norte 0 -- -- 64
2019-04-21 13:00:00 20.3 18 Norte 27 Norte 0 -- -- 63
2019-04-21 12:00:00 20.4 14 Nordeste 26 Norte 0 -- -- 59
2019-04-21 11:00:00 19.7 12 Norte 26 Norte 0 -- -- 62
2019-04-21 10:00:00 18.4 13 Nordeste 24 Nordeste 0 -- -- 69
2019-04-21 09:00:00 17.7 9 Nordeste 20 Nordeste 0.2 -- -- 76
2019-04-21 08:00:00 17.4 8 Nordeste 21 Este 0 -- -- 71
2019-04-21 07:00:00 17.4 8 Nordeste 21 Nordeste 0 -- -- 72
2019-04-21 06:00:00 17.7 12 Nordeste 26 Nordeste 0 -- -- 72
2019-04-21 05:00:00 17.7 13 Nordeste 31 Nordeste 0 -- -- 71
2019-04-21 04:00:00 18.1 14 Nordeste 23 Nordeste 0 -- -- 73
2019-04-21 03:00:00 18.2 12 Nordeste 23 Norte 0 -- -- 71
2019-04-21 02:00:00 18.3 14 Nordeste 26 Nordeste 0 -- -- 72
2019-04-21 01:00:00 18.1 12 Nordeste 32 Nordeste 0 -- -- 69
2019-04-21 00:00:00 18.1 12 Nordeste 30 Norte 0 -- -- 70
2019-04-20 23:00:00 17.8 9 Este 27 Este 0.4 -- -- 75
2019-04-20 22:00:00 18.5 12 Nordeste 24 Nordeste 0 -- -- 70
2019-04-20 21:00:00 18.6 11 Nordeste 27 Nordeste 0 -- -- 65
2019-04-20 20:00:00 19.1 17 Nordeste 30 Nordeste 0 -- -- 60
2019-04-20 19:00:00 19.7 17 Nordeste 31 Norte 0 -- -- 62
2019-04-20 18:00:00 20.3 15 Norte 28 Nordeste 0 -- -- 59
2019-04-20 17:00:00 18.2 12 Norte 45 Norte 0 -- -- 69
2019-04-20 16:00:00 20.4 19 Norte 43 Norte 0 -- -- 57
2019-04-20 15:00:00 19.6 24 Norte 33 Norte 0 -- -- 64
2019-04-20 14:00:00 19.5 22 Norte 32 Norte 0 -- -- 62
2019-04-20 13:00:00 18.8 16 Norte 39 Norte 0 -- -- 65
2019-04-20 12:00:00 18.9 12 Norte 33 Nordeste 0 -- -- 62
2019-04-20 11:00:00 16.6 22 Norte 36 Norte 0 -- -- 73
2019-04-20 10:00:00 17.5 12 Nordeste 26 Este 0 -- -- 71
2019-04-20 09:00:00 16.4 17 Este 31 Nordeste 0 -- -- 77
2019-04-20 08:00:00 17.4 14 Nordeste 27 Nordeste 0 -- -- 66
2019-04-20 07:00:00 17.6 14 Nordeste 23 Nordeste 0 -- -- 64
2019-04-20 06:00:00 17.5 13 Nordeste 23 Nordeste 0 -- -- 65
2019-04-20 05:00:00 17.5 15 Nordeste 23 Nordeste 0 -- -- 63
2019-04-20 04:00:00 17.3 15 Nordeste 28 Nordeste 0 -- -- 63
2019-04-20 03:00:00 17.2 10 Nordeste 29 Nordeste 0 -- -- 65
2019-04-20 02:00:00 17.6 16 Nordeste 27 Nordeste 0 -- -- 64
2019-04-20 01:00:00 17.6 15 Nordeste 30 Nordeste 0 -- -- 61
2019-04-20 00:00:00 17.9 16 Nordeste 25 Nordeste 0 -- -- 64
2019-04-19 23:00:00 17.9 12 Nordeste 27 Nordeste 0 -- -- 59
2019-04-19 22:00:00 17.9 17 Nordeste 29 Nordeste 0 -- -- 59
2019-04-19 21:00:00 18 16 Norte 30 Norte 0 -- -- 59
2019-04-19 20:00:00 18.6 16 Norte 33 Norte 0 -- -- 60
2019-04-19 19:00:00 19.2 24 Norte 39 Norte 0 -- -- 57
2019-04-19 18:00:00 19.5 23 Norte 38 Norte 0 -- -- 59
2019-04-19 17:00:00 19.6 21 Norte 39 Nordeste 0 -- -- 60
2019-04-19 16:00:00 19.7 24 Norte 40 Norte 0 -- -- 58
2019-04-19 15:00:00 19.4 24 Norte 44 Norte 0 -- -- 58
2019-04-19 14:00:00 19.6 22 Nordeste 44 Norte 0 -- -- 57
2019-04-19 13:00:00 19 26 Norte 37 Nordeste 0 -- -- 60
2019-04-19 12:00:00 20.1 17 Nordeste 39 Norte 0 -- -- 48
2019-04-19 11:00:00 18.9 21 Nordeste 41 Norte 0 -- -- 57
2019-04-19 10:00:00 19.2 17 Nordeste 37 Nordeste 0 -- -- 54
2019-04-19 09:00:00 17.8 21 Nordeste 35 Nordeste 0 -- -- 62
2019-04-19 08:00:00 17.5 17 Nordeste 33 Nordeste 0 -- -- 60
2019-04-19 07:00:00 17.4 22 Nordeste 38 Nordeste 0 -- -- 61
2019-04-19 06:00:00 17.6 21 Nordeste 34 Nordeste 0 -- -- 62
2019-04-19 05:00:00 17.7 18 Nordeste 33 Nordeste 0 -- -- 62
2019-04-19 04:00:00 17.5 19 Nordeste 37 Nordeste 0 -- -- 58
2019-04-19 03:00:00 17.9 20 Nordeste 36 Nordeste 0 -- -- 62
2019-04-19 02:00:00 17.8 16 Nordeste 40 Norte 0 -- -- 61
2019-04-19 01:00:00 18 17 Nordeste 34 Norte 0 -- -- 65
2019-04-19 00:00:00 18 16 Nordeste 29 Nordeste 0 -- -- 62
2019-04-18 23:00:00 18.1 14 Nordeste 30 Nordeste 0 -- -- 60
2019-04-18 22:00:00 18.2 18 Nordeste 31 Nordeste 0 -- -- 60
2019-04-18 21:00:00 18.4 16 Nordeste 33 Nordeste 0 -- -- 59
2019-04-18 20:00:00 19.3 16 Nordeste 43 Norte 0 -- -- 55
2019-04-18 19:00:00 19.8 20 Nordeste 38 Norte 0 -- -- 55
2019-04-18 18:00:00 20.1 24 Norte 36 Norte 0 -- -- 54
2019-04-18 17:00:00 20.5 21 Nordeste 37 Nordeste 0 -- -- 51
2019-04-18 16:00:00 20.2 21 Norte 35 Norte 0 -- -- 53
2019-04-18 15:00:00 19.9 22 Norte 36 Norte 0 -- -- 56
2019-04-18 14:00:00 20.4 20 Norte 36 Norte 0 -- -- 56
2019-04-18 13:00:00 19.6 19 Norte 36 Nordeste 0 -- -- 58
2019-04-18 12:00:00 19.8 18 Nordeste 33 Norte 0 -- -- 60
2019-04-18 11:00:00 18.9 18 Norte 31 Norte 0 -- -- 66
2019-04-18 10:00:00 19.1 17 Nordeste 26 Nordeste 0 -- -- 59
2019-04-18 09:00:00 18.5 13 Nordeste 23 Nordeste 0 -- -- 61
2019-04-18 08:00:00 17.7 12 Nordeste 28 Nordeste 0 -- -- 66
2019-04-18 07:00:00 17.7 10 Nordeste 22 Nordeste 0 -- -- 66
2019-04-18 06:00:00 17.9 12 Nordeste 21 Este 0 -- -- 66
2019-04-18 05:00:00 17.7 9 Este 17 Nordeste 0 -- -- 66
2019-04-18 04:00:00 17.8 7 Nordeste 17 Nordeste 0 -- -- 67
2019-04-18 03:00:00 18.1 7 Nordeste 18 Este 0 -- -- 66
2019-04-18 02:00:00 18.2 9 Este 24 Nordeste 0 -- -- 65
2019-04-18 01:00:00 18.6 13 Nordeste 21 Nordeste 0 -- -- 64
2019-04-18 00:00:00 18.8 8 Nordeste 21 Norte 0 -- -- 65
2019-04-17 23:00:00 19 11 Norte 24 Norte 0 -- -- 67
2019-04-17 22:00:00 19.2 15 Norte 21 Norte 0 -- -- 70
2019-04-17 21:00:00 19 9 Este 17 Este 0 -- -- 62
2019-04-17 20:00:00 19 7 Nordeste 22 Norte 0 -- -- 65
2019-04-17 19:00:00 19.5 7 Norte 19 Norte 0 -- -- 71
2019-04-17 18:00:00 18.7 5 Este 37 Norte 0 -- -- 71
2019-04-17 17:00:00 18.8 28 Noroeste 33 Noroeste 0 -- -- 78
2019-04-17 16:00:00 19.3 14 Norte 33 Noroeste 0 -- -- 76
2019-04-17 15:00:00 20.1 23 Norte 29 Norte 0 -- -- 73
2019-04-17 14:00:00 21.8 9 Oeste 13 Oeste 0 -- -- 63
2019-04-17 13:00:00 21.7 8 Oeste 10 Oeste 0 -- -- 63
2019-04-17 12:00:00 21.4 6 Oeste 12 Sur 0 -- -- 59
2019-04-17 11:00:00 21.8 5 Sudoeste 8 Sur 0 -- -- 56
2019-04-17 10:00:00 22.5 2 Oeste 6 Sudeste 0 -- -- 53
2019-04-17 09:00:00 19.8 6 Este 12 Este 0 -- -- 51
2019-04-17 08:00:00 17.5 12 Este 17 Este 0 -- -- 55
2019-04-17 07:00:00 17.7 10 Este 18 Este 0 -- -- 58
2019-04-17 06:00:00 18 9 Este 18 Este 0 -- -- 62
2019-04-17 05:00:00 18.5 9 Nordeste 15 Nordeste 0 -- -- 69
2019-04-17 04:00:00 18.8 7 Nordeste 15 Nordeste 0 -- -- 70
2019-04-17 03:00:00 18.9 9 Nordeste 17 Nordeste 0 -- -- 69
2019-04-17 02:00:00 19 10 Nordeste 22 Norte 0 -- -- 68
2019-04-17 01:00:00 19.1 11 Norte 22 Norte 0 -- -- 68
2019-04-17 00:00:00 19.5 14 Norte 18 Norte 0 -- -- 72
2019-04-16 23:00:00 19.6 4 Norte 6 Norte 0 -- -- 72
2019-04-16 22:00:00 19.6 4 Noroeste 8 Noroeste 0 -- -- 71
2019-04-16 21:00:00 19.5 5 Noroeste 9 Oeste 0 -- -- 71
2019-04-16 20:00:00 20.7 4 Oeste 12 Sudoeste 0 -- -- 67
2019-04-16 19:00:00 21.8 8 Sudoeste 13 Oeste 0 -- -- 63
2019-04-16 18:00:00 21.9 8 Oeste 10 Oeste 0 -- -- 63
2019-04-16 17:00:00 21.8 5 Oeste 9 Norte 0 -- -- 64
2019-04-16 16:00:00 21.1 6 Norte 19 Oeste 0 -- -- 68
2019-04-16 15:00:00 21.1 17 Oeste 22 Sudoeste 0 -- -- 65
2019-04-16 14:00:00 21.3 18 Sudoeste 31 Sudoeste 0 -- -- 68
2019-04-16 13:00:00 22 14 Oeste 28 Sudoeste 0 -- -- 64
2019-04-16 12:00:00 22.8 9 Norte 28 Nordeste 0 -- -- 57
2019-04-16 11:00:00 22 13 Nordeste 25 Nordeste 0 -- -- 55
2019-04-16 10:00:00 20.9 8 Este 19 Este 0 -- -- 60
2019-04-16 09:00:00 20.8 4 Sudeste 24 Nordeste 0 -- -- 52
2019-04-16 08:00:00 17.9 12 Nordeste 28 Nordeste 0 -- -- 72
2019-04-16 07:00:00 18.2 18 Nordeste 32 Nordeste 0 -- -- 72
2019-04-16 06:00:00 18.4 17 Nordeste 34 Nordeste 0 -- -- 70
2019-04-16 05:00:00 18.9 13 Este 31 Nordeste 0 -- -- 62
2019-04-16 04:00:00 18.4 9 Este 26 Este 0 -- -- 64
2019-04-16 03:00:00 18.8 11 Este 28 Nordeste 0 -- -- 64
2019-04-16 02:00:00 19.2 6 Sudeste 35 Nordeste 0 -- -- 61
2019-04-16 01:00:00 19.5 17 Nordeste 39 Nordeste 0 -- -- 60
2019-04-16 00:00:00 19.8 22 Nordeste 44 Nordeste 0 -- -- 58
2019-04-15 23:00:00 20.2 24 Nordeste 44 Nordeste 0 -- -- 57
2019-04-15 22:00:00 20.3 26 Nordeste 44 Nordeste 0 -- -- 57
2019-04-15 21:00:00 20.1 25 Nordeste 53 Nordeste 0 -- -- 63
2019-04-15 20:00:00 20.8 26 Nordeste 43 Nordeste 0 -- -- 62
2019-04-15 19:00:00 22.5 26 Nordeste 56 Este 0 -- -- 53
2019-04-15 18:00:00 22.5 30 Nordeste 54 Nordeste 0 -- -- 52
2019-04-15 17:00:00 23 28 Nordeste 53 Nordeste 0 -- -- 51
2019-04-15 16:00:00 23.4 32 Nordeste 53 Nordeste 0 -- -- 50
2019-04-15 15:00:00 23.6 30 Nordeste 53 Nordeste 0 -- -- 49
2019-04-15 14:00:00 22.9 33 Nordeste 55 Nordeste 0 -- -- 50
2019-04-15 13:00:00 23 27 Nordeste 49 Nordeste 0 -- -- 50
2019-04-15 12:00:00 22.5 27 Nordeste 47 Nordeste 0 -- -- 50
2019-04-15 11:00:00 22.4 18 Nordeste 37 Nordeste 0 -- -- 45
2019-04-15 10:00:00 20.2 19 Nordeste 31 Nordeste 0 -- -- 57
2019-04-15 09:00:00 19.1 13 Este 25 Nordeste 0 -- -- 64
2019-04-15 08:00:00 18.6 10 Este 22 Este 0 -- -- 61
2019-04-15 07:00:00 18.3 11 Este 20 Este 0 -- -- 62
2019-04-15 06:00:00 18.4 10 Nordeste 19 Este 0 -- -- 67
2019-04-15 05:00:00 18.5 10 Este 21 Nordeste 0 -- -- 66
2019-04-15 04:00:00 18.4 10 Este 21 Este 0 -- -- 66
2019-04-15 03:00:00 18.5 9 Este 21 Este 0 -- -- 64
2019-04-15 02:00:00 18 10 Nordeste 22 Nordeste 0 -- -- 68
2019-04-15 01:00:00 18.4 15 Nordeste 22 Nordeste 0 -- -- 69
2019-04-15 00:00:00 18.4 12 Nordeste 20 Nordeste 0 -- -- 70
2019-04-14 23:00:00 19 12 Nordeste 24 Nordeste 0 -- -- 69
2019-04-14 22:00:00 18.9 13 Nordeste 27 Norte 0 -- -- 69
2019-04-14 21:00:00 19 15 Norte 29 Norte 0 -- -- 69
2019-04-14 20:00:00 19.8 17 Norte 28 Norte 0 -- -- 68
2019-04-14 19:00:00 20.2 22 Norte 33 Norte 0 -- -- 68
2019-04-14 18:00:00 20.6 26 Norte 31 Norte 0 -- -- 69
2019-04-14 17:00:00 20.6 19 Norte 35 Noroeste 0 -- -- 69
2019-04-14 16:00:00 20.2 26 Norte 31 Norte 0 -- -- 70
2019-04-14 15:00:00 20.2 22 Norte 31 Norte 0 -- -- 71
2019-04-14 14:00:00 20.1 21 Norte 27 Noroeste 0 -- -- 71
2019-04-14 13:00:00 19.9 19 Norte 28 Norte 0 -- -- 70
2019-04-14 12:00:00 19.7 17 Norte 23 Norte 0 -- -- 70
2019-04-14 11:00:00 20 10 Sudeste 14 Sur 0 -- -- 58
2019-04-14 10:00:00 21.3 3 Oeste 12 Este 0 -- -- 52
2019-04-14 09:00:00 18.4 7 Este 15 Sudeste 0 -- -- 54
2019-04-14 08:00:00 17 9 Sudeste 20 Nordeste 0 -- -- 65
2019-04-14 07:00:00 17.1 10 Sudeste 40 Norte 0 -- -- 64
2019-04-14 06:00:00 17.2 26 Nordeste 40 Norte 0 -- -- 70
2019-04-14 05:00:00 16.9 18 Nordeste 36 Nordeste 0 -- -- 70
2019-04-14 04:00:00 17.4 26 Nordeste 45 Nordeste 0 -- -- 67
2019-04-14 03:00:00 17.5 27 Nordeste 42 Nordeste 0 -- -- 70
2019-04-14 02:00:00 17.5 23 Nordeste 51 Nordeste 0 -- -- 70
2019-04-14 01:00:00 17.8 32 Nordeste 55 Nordeste 0 -- -- 68
2019-04-14 00:00:00 18 26 Nordeste 45 Nordeste 0 -- -- 67
2019-04-13 23:00:00 18.1 24 Nordeste 38 Nordeste 0 -- -- 67
2019-04-13 22:00:00 18.1 23 Nordeste 36 Nordeste 0 -- -- 68
2019-04-13 21:00:00 18.3 24 Nordeste 48 Norte 0 -- -- 68
2019-04-13 20:00:00 19.1 27 Nordeste 51 Nordeste 0 -- -- 65
2019-04-13 19:00:00 19.7 29 Nordeste 50 Nordeste 0 -- -- 61
2019-04-13 18:00:00 20 33 Norte 48 Norte 0 -- -- 62
2019-04-13 17:00:00 21 26 Nordeste 48 Norte 0 -- -- 56
2019-04-13 16:00:00 21.5 27 Nordeste 57 Nordeste 0 -- -- 55
2019-04-13 15:00:00 21.1 26 Nordeste 53 Norte 0 -- -- 55
2019-04-13 14:00:00 21 25 Nordeste 45 Norte 0 -- -- 55
2019-04-13 13:00:00 20.4 30 Norte 48 Norte 0 -- -- 56
2019-04-13 12:00:00 20.4 21 Nordeste 43 Nordeste 0 -- -- 59
2019-04-13 11:00:00 19.4 27 Nordeste 41 Nordeste 0 -- -- 61
2019-04-13 10:00:00 18.7 22 Nordeste 41 Este 0 -- -- 61
2019-04-13 09:00:00 18.7 14 Este 31 Este 0 -- -- 58
2019-04-13 08:00:00 17.9 15 Este 37 Nordeste 0 -- -- 58
2019-04-13 07:00:00 17.6 17 Nordeste 41 Este 0 -- -- 61
2019-04-13 06:00:00 18.2 12 Nordeste 29 Sudeste 0 -- -- 59
2019-04-13 05:00:00 18 16 Nordeste 36 Norte 0 -- -- 56
2019-04-13 04:00:00 18 19 Nordeste 37 Nordeste 0 -- -- 62
2019-04-13 03:00:00 17.8 16 Nordeste 36 Nordeste 0 -- -- 60
2019-04-13 02:00:00 17.8 21 Nordeste 37 Nordeste 0 -- -- 60
2019-04-13 01:00:00 17.9 20 Nordeste 32 Nordeste 0 -- -- 62
2019-04-13 00:00:00 17.9 18 Nordeste 34 Nordeste 0 -- -- 62
2019-04-12 23:00:00 17.9 14 Nordeste 31 Este 0 -- -- 59
2019-04-12 22:00:00 18 20 Nordeste 33 Nordeste 0 -- -- 58
2019-04-12 21:00:00 18.1 20 Nordeste 36 Nordeste 0 -- -- 61
2019-04-12 20:00:00 18.7 21 Nordeste 39 Nordeste 0 -- -- 61
2019-04-12 19:00:00 19.8 19 Nordeste 40 Nordeste 0 -- -- 59
2019-04-12 18:00:00 19.6 22 Nordeste 44 Nordeste 0 -- -- 54
2019-04-12 17:00:00 20 22 Nordeste 52 Nordeste 0 -- -- 51
2019-04-12 16:00:00 20.3 23 Nordeste 50 Nordeste 0 -- -- 55
2019-04-12 15:00:00 20.1 23 Nordeste 40 Nordeste 0 -- -- 50
2019-04-12 14:00:00 20.3 21 Nordeste 40 Nordeste 0 -- -- 49
2019-04-12 13:00:00 19.7 24 Nordeste 43 Nordeste 0 -- -- 57
2019-04-12 12:00:00 18.6 23 Nordeste 40 Este 0 -- -- 62
2019-04-12 11:00:00 18.8 19 Nordeste 34 Nordeste 0 -- -- 61
2019-04-12 10:00:00 18.3 18 Nordeste 34 Nordeste 0 -- -- 59
2019-04-12 09:00:00 17.9 19 Nordeste 34 Norte 0 -- -- 58
2019-04-12 08:00:00 17.4 18 Nordeste 31 Nordeste 0 -- -- 66
2019-04-12 07:00:00 17.5 15 Nordeste 35 Nordeste 0 -- -- 60
2019-04-12 06:00:00 17.3 15 Nordeste 33 Norte 0 -- -- 68
2019-04-12 05:00:00 17.6 12 Nordeste 32 Nordeste 0 -- -- 59
2019-04-12 04:00:00 17.7 15 Nordeste 32 Nordeste 0 -- -- 54
2019-04-12 03:00:00 17.7 16 Nordeste 32 Nordeste 0 -- -- 58
2019-04-12 02:00:00 17.9 17 Nordeste 38 Nordeste 0 -- -- 55
2019-04-12 01:00:00 18 20 Nordeste 33 Nordeste 0 -- -- 55
2019-04-12 00:00:00 18 17 Nordeste 37 Norte 0 -- -- 61
2019-04-11 23:00:00 18.1 21 Nordeste 37 Nordeste 0 -- -- 60
2019-04-11 22:00:00 18.2 18 Nordeste 35 Nordeste 0 -- -- 61
2019-04-11 21:00:00 18.2 17 Nordeste 34 Nordeste 0 -- -- 62
2019-04-11 20:00:00 18.7 20 Nordeste 39 Nordeste 0 -- -- 59
2019-04-11 19:00:00 19.3 25 Norte 42 Nordeste 0 -- -- 57
2019-04-11 18:00:00 19.9 23 Norte 46 Nordeste 0 -- -- 52
2019-04-11 17:00:00 19.3 24 Norte 39 Norte 0 -- -- 56
2019-04-11 16:00:00 19.3 28 Norte 43 Norte 0 -- -- 58
2019-04-11 15:00:00 20.9 19 Nordeste 40 Nordeste 0 -- -- 47
2019-04-11 14:00:00 19.8 21 Nordeste 39 Nordeste 0 -- -- 53
2019-04-11 13:00:00 19.6 22 Nordeste 53 Nordeste 0 -- -- 51
2019-04-11 12:00:00 19 23 Nordeste 40 Nordeste 0 -- -- 52
2019-04-11 11:00:00 18.5 22 Nordeste 41 Nordeste 0 -- -- 54
2019-04-11 10:00:00 18.1 19 Nordeste 37 Nordeste 0 -- -- 53
2019-04-11 09:00:00 17.7 19 Nordeste 34 Este 0 -- -- 58
2019-04-11 08:00:00 17.4 22 Nordeste 34 Nordeste 0 -- -- 56
2019-04-11 07:00:00 17.5 17 Nordeste 38 Nordeste 0 -- -- 60
2019-04-11 06:00:00 17.5 19 Nordeste 38 Nordeste 0 -- -- 62
2019-04-11 05:00:00 17.6 19 Nordeste 37 Nordeste 0 -- -- 57
2019-04-11 04:00:00 17.7 19 Nordeste 35 Nordeste 0 -- -- 56
2019-04-11 03:00:00 17.5 16 Nordeste 32 Nordeste 0 -- -- 57
2019-04-11 02:00:00 17.6 17 Nordeste 36 Nordeste 0 -- -- 57
2019-04-11 01:00:00 17.6 20 Nordeste 40 Norte 0 -- -- 57
2019-04-11 00:00:00 17.6 18 Nordeste 35 Nordeste 0 -- -- 56
2019-04-10 23:00:00 18 21 Nordeste 37 Nordeste 0 -- -- 63
2019-04-10 22:00:00 18.1 18 Nordeste 31 Nordeste 0 -- -- 68
2019-04-10 21:00:00 18.2 20 Nordeste 37 Nordeste 0 -- -- 58
2019-04-10 20:00:00 18.5 21 Nordeste 37 Nordeste 0 -- -- 60
2019-04-10 19:00:00 19.3 22 Norte 44 Nordeste 0 -- -- 58
2019-04-10 18:00:00 19.2 18 Nordeste 37 Nordeste 0 -- -- 61
2019-04-10 17:00:00 20.3 22 Norte 38 Nordeste 0 -- -- 55
2019-04-10 16:00:00 19.9 19 Nordeste 40 Nordeste 0 -- -- 55
2019-04-10 15:00:00 19.4 23 Norte 42 Nordeste 0 -- -- 58
2019-04-10 14:00:00 19.4 24 Nordeste 41 Nordeste 0 -- -- 55
2019-04-10 13:00:00 20.6 18 Nordeste 34 Nordeste 0 -- -- 48
2019-04-10 12:00:00 19.7 17 Nordeste 35 Este 0 -- -- 55
2019-04-10 11:00:00 19.7 16 Nordeste 37 Este 0 -- -- 49
2019-04-10 10:00:00 18.2 21 Nordeste 35 Nordeste 0 -- -- 53
2019-04-10 09:00:00 17.8 20 Nordeste 32 Nordeste 0 -- -- 58
2019-04-10 08:00:00 17.3 14 Nordeste 35 Este 0 -- -- 60
2019-04-10 07:00:00 17.7 15 Nordeste 37 Este 0 -- -- 56
2019-04-10 06:00:00 17.5 14 Nordeste 34 Sudeste 0 -- -- 56
2019-04-10 05:00:00 17.3 14 Este 32 Este 0 -- -- 55
2019-04-10 04:00:00 17.2 22 Nordeste 35 Nordeste 0 -- -- 56
2019-04-10 03:00:00 17.3 19 Nordeste 35 Nordeste 0 -- -- 57
2019-04-10 02:00:00 17.4 23 Nordeste 38 Nordeste 0 -- -- 62
2019-04-10 01:00:00 17.5 18 Nordeste 30 Nordeste 0 -- -- 63
2019-04-10 00:00:00 17.6 16 Nordeste 27 Nordeste 0 -- -- 61
2019-04-09 23:00:00 17.6 16 Nordeste 28 Nordeste 0 -- -- 61
2019-04-09 22:00:00 17.8 16 Nordeste 30 Nordeste 0 -- -- 63
2019-04-09 21:00:00 17.9 18 Nordeste 33 Nordeste 0 -- -- 63
2019-04-09 20:00:00 18.9 16 Nordeste 33 Nordeste 0 -- -- 63
2019-04-09 19:00:00 19.9 18 Nordeste 36 Nordeste 0 -- -- 61
2019-04-09 18:00:00 19.9 21 Nordeste 38 Nordeste 0 -- -- 63
2019-04-09 17:00:00 20.4 20 Nordeste 36 Nordeste 0 -- -- 63
2019-04-09 16:00:00 19.2 23 Nordeste 38 Este 0 -- -- 69
2019-04-09 15:00:00 20.8 18 Nordeste 39 Nordeste 0 -- -- 60
2019-04-09 14:00:00 19.5 21 Nordeste 33 Norte 0 -- -- 69
2019-04-09 13:00:00 19.9 20 Nordeste 39 Nordeste 0 -- -- 68
2019-04-09 12:00:00 20.1 23 Norte 36 Nordeste 0 -- -- 62
2019-04-09 11:00:00 20.7 13 Nordeste 28 Nordeste 0 -- -- 53
2019-04-09 10:00:00 19.6 16 Nordeste 25 Nordeste 0 -- -- 58
2019-04-09 09:00:00 18.2 14 Nordeste 24 Nordeste 0 -- -- 66
2019-04-09 08:00:00 17.7 13 Nordeste 27 Norte 0 -- -- 70
2019-04-09 07:00:00 17.5 13 Norte 22 Norte 0 -- -- 69
2019-04-09 06:00:00 17.5 10 Nordeste 18 Nordeste 0 -- -- 69
2019-04-09 05:00:00 17.5 9 Nordeste 24 Nordeste 0 -- -- 68
2019-04-09 04:00:00 17.7 15 Nordeste 25 Norte 0 -- -- 66
2019-04-09 03:00:00 17.3 10 Nordeste 19 Nordeste 0 -- -- 64
2019-04-09 02:00:00 17.6 12 Nordeste 22 Este 0 -- -- 61
2019-04-09 01:00:00 17.4 10 Nordeste 23 Nordeste 0 -- -- 62
2019-04-09 00:00:00 17.6 12 Nordeste 23 Nordeste 0 -- -- 62
2019-04-08 23:00:00 18.4 13 Nordeste 23 Nordeste 0 -- -- 57
2019-04-08 22:00:00 18.7 13 Nordeste 26 Nordeste 0 -- -- 60
2019-04-08 21:00:00 18.8 16 Nordeste 27 Norte 0 -- -- 60
2019-04-08 20:00:00 19.6 15 Norte 28 Norte 0 -- -- 60
2019-04-08 19:00:00 19.9 19 Norte 35 Norte 0 -- -- 60
2019-04-08 18:00:00 20.1 19 Norte 35 Norte 0 -- -- 60
2019-04-08 17:00:00 20.2 20 Norte 31 Norte 0 -- -- 63
2019-04-08 16:00:00 20.2 21 Norte 29 Norte 0 -- -- 65
2019-04-08 15:00:00 19.8 18 Norte 27 Noroeste 0 -- -- 64
2019-04-08 14:00:00 19.9 13 Norte 25 Norte 0 -- -- 63
2019-04-08 13:00:00 18.7 19 Norte 27 Norte 0 -- -- 64
2019-04-08 12:00:00 19.2 7 Norte 25 Norte 0 -- -- 66
2019-04-08 11:00:00 19.5 12 Norte 18 Norte 0 -- -- 64
2019-04-08 10:00:00 18.2 5 Sudeste 17 Nordeste 0 -- -- 70
2019-04-08 09:00:00 17.6 7 Este 13 Este 0 -- -- 72
2019-04-08 08:00:00 17.1 6 Nordeste 12 Este 0 -- -- 71
2019-04-08 07:00:00 17.4 6 Sudeste 19 Nordeste 0 -- -- 72
2019-04-08 06:00:00 17.8 7 Nordeste 14 Este 0 -- -- 72
2019-04-08 05:00:00 17.7 7 Este 14 Nordeste 0 -- -- 71
2019-04-08 04:00:00 18 7 Nordeste 14 Nordeste 0 -- -- 70
2019-04-08 03:00:00 18 8 Nordeste 13 Nordeste 0 -- -- 71
2019-04-08 02:00:00 17.8 5 Nordeste 10 Nordeste 0 -- -- 71
2019-04-08 01:00:00 17.9 5 Nordeste 12 Sudeste 0 -- -- 66
2019-04-08 00:00:00 17.7 7 Sudeste 12 Este 0 -- -- 60
2019-04-07 23:00:00 17.9 7 Nordeste 20 Este 0 -- -- 67
2019-04-07 22:00:00 18.1 9 Este 18 Nordeste 0 -- -- 68
2019-04-07 21:00:00 18.4 11 Nordeste 20 Noroeste 0 -- -- 69
2019-04-07 20:00:00 19.2 15 Norte 26 Norte 0 -- -- 65
2019-04-07 19:00:00 20.4 15 Norte 31 Norte 0 -- -- 61
2019-04-07 18:00:00 19.8 23 Norte 36 Norte 0 -- -- 68
2019-04-07 17:00:00 19.7 24 Norte 39 Norte 0 -- -- 67
2019-04-07 16:00:00 19.8 26 Norte 30 Norte 0 -- -- 66
2019-04-07 15:00:00 19.8 22 Norte 29 Norte 0 -- -- 65
2019-04-07 14:00:00 19.6 19 Norte 24 Norte 0 -- -- 67
2019-04-07 13:00:00 19.4 16 Norte 27 Noroeste 0 -- -- 68
2019-04-07 12:00:00 19.3 18 Norte 21 Norte 0 -- -- 66
2019-04-07 11:00:00 19.1 13 Norte 17 Noroeste 0 -- -- 65
2019-04-07 10:00:00 19.8 7 Nordeste 17 Norte 0 -- -- 60
2019-04-07 09:00:00 17.8 8 Nordeste 18 Nordeste 0 -- -- 60
2019-04-07 08:00:00 15.9 9 Nordeste 20 Nordeste 0 -- -- 64
2019-04-07 07:00:00 16 11 Nordeste 17 Este 0 -- -- 67
2019-04-07 06:00:00 16.1 10 Nordeste 18 Nordeste 0 -- -- 68
2019-04-07 05:00:00 16.4 10 Nordeste 17 Nordeste 0 -- -- 66
2019-04-07 04:00:00 17.1 7 Nordeste 22 Este 0 -- -- 62
2019-04-07 03:00:00 17 7 Nordeste 13 Nordeste 0 -- -- 64
2019-04-07 02:00:00 17.1 9 Nordeste 20 Nordeste 0 -- -- 64
2019-04-07 01:00:00 17.4 11 Nordeste 22 Nordeste 0 -- -- 62
2019-04-07 00:00:00 17.3 9 Nordeste 18 Nordeste 0 -- -- 64
2019-04-06 23:00:00 17.7 11 Nordeste 24 Nordeste 0 -- -- 62
2019-04-06 22:00:00 17.8 14 Nordeste 23 Nordeste 0 -- -- 61
2019-04-06 21:00:00 18.1 10 Nordeste 27 Nordeste 0 -- -- 61
2019-04-06 20:00:00 18.3 16 Norte 29 Norte 0 -- -- 62
2019-04-06 19:00:00 19.3 18 Norte 27 Norte 0 -- -- 58
2019-04-06 18:00:00 19.7 19 Norte 33 Norte 0 -- -- 60
2019-04-06 17:00:00 19.6 21 Norte 34 Norte 0 -- -- 60
2019-04-06 16:00:00 19.2 27 Norte 40 Norte 0 -- -- 59
2019-04-06 15:00:00 19.1 23 Norte 31 Norte 0 -- -- 62
2019-04-06 14:00:00 18.9 23 Norte 33 Norte 0 -- -- 60
2019-04-06 13:00:00 19 20 Norte 32 Norte 0 -- -- 61
2019-04-06 12:00:00 18.5 15 Norte 32 Norte 0 -- -- 60
2019-04-06 11:00:00 18.1 23 Norte 28 Norte 0 -- -- 67
2019-04-06 10:00:00 18.2 12 Norte 18 Norte 0 -- -- 60
2019-04-06 09:00:00 17.8 9 Norte 28 Norte 0 -- -- 65
2019-04-06 08:00:00 17.4 19 Norte 29 Norte 0 -- -- 65
2019-04-06 07:00:00 17 9 Norte 22 Norte 0 -- -- 66
2019-04-06 06:00:00 16.4 10 Este 27 Norte 0 -- -- 61
2019-04-06 05:00:00 17.3 18 Norte 30 Norte 0 -- -- 60
2019-04-06 04:00:00 17.4 21 Norte 31 Norte 0 -- -- 62
2019-04-06 03:00:00 17 5 Este 23 Nordeste 0 -- -- 63
2019-04-06 02:00:00 16.4 25 Norte 48 Norte 0 -- -- 66
2019-04-06 01:00:00 17.9 14 Norte 27 Norte 0 -- -- 60
2019-04-06 00:00:00 17.2 13 Nordeste 36 Norte 0 -- -- 69
2019-04-05 23:00:00 18.1 17 Norte 35 Norte 0 -- -- 63
2019-04-05 22:00:00 18.2 22 Norte 32 Norte 0 -- -- 66
2019-04-05 21:00:00 18.3 24 Norte 36 Norte 0 -- -- 63
2019-04-05 20:00:00 18.6 25 Norte 34 Norte 0 -- -- 66
2019-04-05 19:00:00 18.8 27 Norte 35 Norte 0 -- -- 67
2019-04-05 18:00:00 19 18 Norte 43 Noroeste 0 -- -- 69
2019-04-05 17:00:00 18.7 29 Norte 41 Norte 0 -- -- 72
2019-04-05 16:00:00 20.2 17 Norte 21 Norte 0 -- -- 61
2019-04-05 15:00:00 20.2 13 Norte 24 Norte 0 -- -- 59
2019-04-05 14:00:00 19.9 15 Norte 23 Norte 0 -- -- 56
2019-04-05 13:00:00 19.8 12 Norte 19 Norte 0 -- -- 61
2019-04-05 12:00:00 20.1 9 Norte 18 Norte 0 -- -- 59
2019-04-05 11:00:00 19.7 8 Norte 13 Norte 0 -- -- 57
2019-04-05 10:00:00 18.2 7 Norte 13 Sudeste 0 -- -- 65
2019-04-05 09:00:00 17.5 8 Sudeste 16 Norte 0 -- -- 65
2019-04-05 08:00:00 17.5 14 Norte 22 Norte 0 -- -- 67
2019-04-05 07:00:00 16.3 5 Este 15 Este 0 -- -- 70
2019-04-05 06:00:00 16.4 10 Este 19 Sudeste 0 -- -- 69
2019-04-05 05:00:00 16.2 6 Este 17 Este 0 -- -- 68
2019-04-05 04:00:00 16.4 8 Este 14 Este 0 -- -- 73
2019-04-05 03:00:00 16.7 7 Este 16 Este 0 -- -- 71
2019-04-05 02:00:00 16.5 10 Nordeste 21 Norte 0 -- -- 74
2019-04-05 01:00:00 16.9 6 Este 15 Este 0 -- -- 70
2019-04-05 00:00:00 17 9 Este 26 Norte 0 -- -- 69
2019-04-04 23:00:00 17.5 16 Norte 33 Norte 0 -- -- 74
2019-04-04 22:00:00 17.6 25 Norte 39 Norte 0 -- -- 71
2019-04-04 21:00:00 18.1 10 Nordeste 26 Norte 0 -- -- 63
2019-04-04 20:00:00 18.8 14 Norte 28 Norte 0 -- -- 60
2019-04-04 19:00:00 19.4 21 Norte 31 Norte 0 -- -- 61
2019-04-04 18:00:00 19.8 14 Norte 27 Norte 0 -- -- 64
2019-04-04 17:00:00 19.4 17 Norte 32 Norte 0 -- -- 62
2019-04-04 16:00:00 19 21 Norte 28 Norte 0 -- -- 67
2019-04-04 15:00:00 19.2 20 Norte 27 Norte 0 -- -- 67
2019-04-04 14:00:00 19.4 15 Norte 23 Norte 0.2 -- -- 65
2019-04-04 13:00:00 19 14 Norte 21 Norte 0 -- -- 67
2019-04-04 12:00:00 18.5 9 Norte 20 Norte 0 -- -- 72
2019-04-04 11:00:00 16.7 12 Norte 24 Norte 0.4 -- -- 75
2019-04-04 10:00:00 17.4 7 Nordeste 13 Este 0 -- -- 68
2019-04-04 09:00:00 15.4 7 Este 22 Este 0 -- -- 78
2019-04-04 08:00:00 14 5 Este 17 Noroeste 1.4 -- -- 87
2019-04-04 07:00:00 15.2 9 Noroeste 22 Este 1.2 -- -- 79
2019-04-04 06:00:00 15 10 Nordeste 19 Este 6 -- -- 77
2019-04-04 05:00:00 16 5 Nordeste 18 Este 2.6 -- -- 80
2019-04-04 04:00:00 16.8 8 Este 18 Este 0 -- -- 72
2019-04-04 03:00:00 16.9 11 Nordeste 23 Norte 0 -- -- 71
2019-04-04 02:00:00 18.1 18 Norte 24 Norte 0 -- -- 68
2019-04-04 01:00:00 18.3 17 Norte 31 Norte 0 -- -- 70
2019-04-04 00:00:00 18.6 24 Norte 32 Norte 0 -- -- 73
2019-04-03 23:00:00 18.3 6 Nordeste 13 Sudeste 0 -- -- 66
2019-04-03 22:00:00 18.9 6 Norte 16 Norte 0 -- -- 64
2019-04-03 21:00:00 19.3 12 Norte 17 Norte 0 -- -- 66
2019-04-03 20:00:00 20.2 5 Sur 12 Sur 0 -- -- 53
2019-04-03 19:00:00 21.9 6 Sudoeste 14 Oeste 0 -- -- 53
2019-04-03 18:00:00 20.8 13 Oeste 19 Oeste 0 -- -- 59
2019-04-03 17:00:00 21.1 10 Oeste 17 Oeste 0 -- -- 56
2019-04-03 16:00:00 20.7 9 Oeste 13 Oeste 0 -- -- 58
2019-04-03 15:00:00 21.4 8 Sur 12 Sur 0 -- -- 57
2019-04-03 14:00:00 20.9 5 Sudoeste 18 Oeste 0 -- -- 59
2019-04-03 13:00:00 19.4 5 Noroeste 21 Noroeste 0 -- -- 64
2019-04-03 12:00:00 18.1 12 Noroeste 22 Noroeste 0 -- -- 71
2019-04-03 11:00:00 19.4 9 Noroeste 18 Noroeste 0 -- -- 71
2019-04-03 10:00:00 18.3 6 Sudeste 14 Sudeste 0 -- -- 71
2019-04-03 09:00:00 17.6 8 Este 19 Este 0 -- -- 69
2019-04-03 08:00:00 16.3 12 Este 17 Este 0 -- -- 75
2019-04-03 07:00:00 16.7 8 Este 13 Este 0 -- -- 78
2019-04-03 06:00:00 17 6 Este 15 Este 0 -- -- 73
2019-04-03 05:00:00 16.9 9 Este 13 Sudeste 0 -- -- 80
2019-04-03 04:00:00 17.2 5 Este 13 Sudeste 0 -- -- 81
2019-04-03 03:00:00 17.4 7 Sudeste 16 Norte 0.4 -- -- 82
2019-04-03 02:00:00 17.3 4 Nordeste 12 Sudeste 0.4 -- -- 84
2019-04-03 01:00:00 17.7 6 Sudeste 10 Este 0 -- -- 79
2019-04-03 00:00:00 17.7 4 Este 23 Norte 0 -- -- 80
2019-04-02 23:00:00 18 16 Norte 25 Norte 0 -- -- 82
2019-04-02 22:00:00 18.1 17 Norte 23 Norte 0 -- -- 82
2019-04-02 21:00:00 18.2 15 Norte 20 Norte 0 -- -- 79
2019-04-02 20:00:00 18.6 10 Norte 26 Noroeste 0 -- -- 77
2019-04-02 19:00:00 18.7 14 Noroeste 24 Noroeste 0 -- -- 75
2019-04-02 18:00:00 18.8 17 Noroeste 23 Noroeste 0 -- -- 74
2019-04-02 17:00:00 19.1 15 Noroeste 19 Noroeste 0 -- -- 74
2019-04-02 16:00:00 19.6 8 Noroeste 15 Noroeste 0 -- -- 69
2019-04-02 15:00:00 19.5 11 Noroeste 18 Noroeste 0 -- -- 72
2019-04-02 14:00:00 19.6 11 Noroeste 17 Noroeste 0 -- -- 70
2019-04-02 13:00:00 20.3 8 Oeste 13 Oeste 0 -- -- 64
2019-04-02 12:00:00 19.9 8 Oeste 13 Oeste 0 -- -- 66
2019-04-02 11:00:00 20.1 7 Oeste 11 Oeste 0 -- -- 67
2019-04-02 10:00:00 20 7 Norte 17 Este 0 -- -- 64
2019-04-02 09:00:00 17.8 9 Este 17 Este 0 -- -- 58
2019-04-02 08:00:00 17.3 6 Sudeste 19 Este 0 -- -- 67
2019-04-02 07:00:00 16.7 5 Este 13 Este 0 -- -- 67
2019-04-02 06:00:00 17.3 7 Este 12 Este 0 -- -- 72
2019-04-02 05:00:00 17.6 6 Sur 11 Este 0 -- -- 70
2019-04-02 04:00:00 17.3 7 Este 12 Este 0 -- -- 67
2019-04-02 03:00:00 16.9 11 Este 16 Este 0 -- -- 65
2019-04-02 02:00:00 17.5 7 Este 10 Este 0 -- -- 67
2019-04-02 01:00:00 17.8 4 Este 15 Este 0 -- -- 64
2019-04-02 00:00:00 18.6 8 Sudoeste 11 Sudoeste 0 -- -- 72
2019-04-01 23:00:00 18.6 3 Sudoeste 8 Sudoeste 0 -- -- 70
2019-04-01 22:00:00 18.9 6 Sudoeste 9 Sur 0 -- -- 69
2019-04-01 21:00:00 19 5 Oeste 6 Sudoeste 0 -- -- 63
2019-04-01 20:00:00 19.9 5 Oeste 12 Oeste 0 -- -- 60
2019-04-01 19:00:00 19.8 8 Oeste 13 Oeste 0 -- -- 61
2019-04-01 18:00:00 19.9 9 Noroeste 26 Norte 0 -- -- 59
2019-04-01 17:00:00 20.8 6 Norte 23 Norte 0 -- -- 55
2019-04-01 16:00:00 20.2 12 Norte 27 Norte 0 -- -- 57
2019-04-01 15:00:00 20.8 11 Norte 20 Noroeste 0 -- -- 60
2019-04-01 14:00:00 20.1 6 Nordeste 24 Norte 0 -- -- 59
2019-04-01 13:00:00 18.9 19 Norte 29 Norte 0 -- -- 69
2019-04-01 12:00:00 19.1 21 Norte 28 Norte 0 -- -- 68
2019-04-01 11:00:00 19.5 18 Norte 22 Norte 0 -- -- 67
2019-04-01 10:00:00 19.8 9 Norte 14 Norte 0 -- -- 61
2019-04-01 09:00:00 17.9 8 Este 18 Este 0 -- -- 53
2019-04-01 08:00:00 16.3 11 Este 17 Sudeste 0 -- -- 58
2019-04-01 07:00:00 16.8 8 Este 18 Sudeste 0 -- -- 59
2019-04-01 06:00:00 17.1 10 Este 20 Este 0 -- -- 59
2019-04-01 05:00:00 16.8 8 Este 14 Este 0 -- -- 64
2019-04-01 04:00:00 17.1 6 Este 10 Sudeste 0 -- -- 72
2019-04-01 03:00:00 17.6 5 Este 12 Este 0 -- -- 70
2019-04-01 02:00:00 18.1 5 Nordeste 10 Este 0 -- -- 67
2019-04-01 01:00:00 17.9 5 Este 15 Este 0 -- -- 60
2019-04-01 00:00:00 18 9 Este 15 Este 0 -- -- 57
2019-03-31 23:00:00 18.4 6 Nordeste 12 Nordeste 0 -- -- 65
2019-03-31 22:00:00 18.5 6 Este 16 Nordeste 0 -- -- 64
2019-03-31 21:00:00 18.8 8 Nordeste 17 Norte 0 -- -- 65
2019-03-31 20:00:00 19.4 11 Norte 17 Norte 0 -- -- 63
2019-03-31 19:00:00 20.1 13 Noroeste 16 Norte 0 -- -- 62
2019-03-31 18:00:00 21.2 8 Noroeste 12 Noroeste 0 -- -- 56
2019-03-31 17:00:00 21.2 6 Noroeste 9 Oeste 0 -- -- 57
2019-03-31 16:00:00 20.9 6 Oeste 12 Oeste 0 -- -- 58
2019-03-31 15:00:00 20.9 8 Oeste 13 Oeste 0 -- -- 58
2019-03-31 14:00:00 20.6 8 Oeste 16 Noroeste 0 -- -- 60
2019-03-31 13:00:00 20.2 13 Noroeste 16 Noroeste 0 -- -- 60
2019-03-31 12:00:00 20.9 4 Oeste 13 Oeste 0 -- -- 54
2019-03-31 11:00:00 20 10 Oeste 13 Oeste 0 -- -- 57
2019-03-31 10:00:00 21.8 4 Sur 17 Este 0 -- -- 46
2019-03-31 09:00:00 17.4 12 Este 21 Este 0 -- -- 53
2019-03-31 08:00:00 16.6 15 Este 27 Este 0 -- -- 52
2019-03-31 07:00:00 17.1 16 Este 26 Sudeste 0 -- -- 46
2019-03-31 06:00:00 16.4 13 Este 22 Este 0 -- -- 52
2019-03-31 05:00:00 15.8 14 Este 22 Este 0 -- -- 57
2019-03-31 04:00:00 15.7 15 Este 21 Este 0 -- -- 60
2019-03-31 00:00:00 16.6 10 Este 17 Este 0 -- -- 54
2019-03-30 23:00:00 16.7 9 Este 16 Este 0 -- -- 59
2019-03-30 22:00:00 17.3 5 Este 14 Nordeste 0 -- -- 64
2019-03-30 21:00:00 17.7 8 Nordeste 16 Nordeste 0 -- -- 63
2019-03-30 20:00:00 18.3 8 Nordeste 24 Norte 0 -- -- 61
2019-03-30 19:00:00 19 15 Norte 31 Norte 0 -- -- 63
2019-03-30 18:00:00 19.7 21 Norte 30 Norte 0 -- -- 63
2019-03-30 17:00:00 20 22 Norte 30 Norte 0 -- -- 61
2019-03-30 16:00:00 20.2 21 Norte 39 Norte 0 -- -- 60
2019-03-30 15:00:00 20.1 24 Norte 37 Norte 0 -- -- 58
2019-03-30 14:00:00 19.7 25 Norte 32 Norte 0 -- -- 62
2019-03-30 13:00:00 19.6 21 Norte 39 Norte 0 -- -- 61
2019-03-30 12:00:00 19.2 22 Norte 27 Norte 0 -- -- 62
2019-03-30 11:00:00 19.6 11 Norte 18 Norte 0 -- -- 65
2019-03-30 10:00:00 19.5 6 Este 22 Sudeste 0 -- -- 53
2019-03-30 09:00:00 16.4 14 Este 23 Este 0 -- -- 67
2019-03-30 08:00:00 16.8 13 Nordeste 36 Norte 0 -- -- 71
2019-03-30 07:00:00 15.9 12 Este 17 Este 0 -- -- 64
2019-03-30 06:00:00 15.6 12 Este 19 Este 0 -- -- 61
2019-03-30 05:00:00 15.5 11 Este 18 Este 0 -- -- 64
2019-03-30 04:00:00 15.9 5 Este 15 Este 0 -- -- 67
2019-03-30 03:00:00 16 9 Este 14 Este 0 -- -- 62
2019-03-30 02:00:00 16 13 Este 22 Este 0 -- -- 62
2019-03-30 01:00:00 16.3 12 Este 20 Sudeste 0 -- -- 64
2019-03-30 00:00:00 16.3 10 Este 18 Este 0 -- -- 68
2019-03-29 23:00:00 16.7 9 Este 17 Este 0 -- -- 73
2019-03-29 22:00:00 17 9 Sudeste 15 Sudeste 0 -- -- 71
2019-03-29 21:00:00 16.6 8 Este 26 Noroeste 4.4 -- -- 75
2019-03-29 20:00:00 18.8 11 Norte 18 Noroeste 0 -- -- 73
2019-03-29 19:00:00 19 11 Oeste 24 Sudoeste 0 -- -- 70
2019-03-29 18:00:00 19.5 16 Sudoeste 21 Sudoeste 0 -- -- 65
2019-03-29 17:00:00 20.2 18 Sudoeste 26 Oeste 0 -- -- 69
2019-03-29 16:00:00 20 17 Oeste 20 Oeste 0 -- -- 69
2019-03-29 15:00:00 20.5 15 Sudoeste 21 Oeste 0 -- -- 66
2019-03-29 14:00:00 20.8 11 Sudoeste 15 Sudoeste 0 -- -- 64
2019-03-29 13:00:00 21.2 3 Sudoeste 8 Sur 0 -- -- 61
2019-03-29 12:00:00 20.4 3 Oeste 11 Oeste 0 -- -- 63
2019-03-29 11:00:00 20.6 6 Oeste 12 Noroeste 0 -- -- 63
2019-03-29 10:00:00 19.8 8 Oeste 9 Oeste 0 -- -- 66
2019-03-29 09:00:00 19.4 6 Este 15 Este 0 -- -- 53
2019-03-29 08:00:00 16.8 11 Este 21 Este 0 -- -- 56
2019-03-29 07:00:00 15.9 14 Este 21 Este 0 -- -- 62
2019-03-29 06:00:00 16.1 13 Este 22 Este 0 -- -- 61
2019-03-29 05:00:00 16.3 13 Este 22 Este 0 -- -- 63
2019-03-29 04:00:00 16.1 14 Este 20 Este 0 -- -- 64
2019-03-29 03:00:00 16.5 10 Este 18 Este 0 -- -- 63
2019-03-29 02:00:00 16.7 7 Este 12 Este 0 -- -- 74
2019-03-29 01:00:00 16.8 5 Este 16 Sudeste 0 -- -- 74
2019-03-29 00:00:00 17.6 10 Este 21 Este 0 -- -- 70
2019-03-28 23:00:00 17.6 9 Sudeste 16 Este 0 -- -- 71
2019-03-28 22:00:00 18.2 2 Este 9 Este 0 -- -- 71
2019-03-28 21:00:00 18.1 10 Este 15 Este 0 -- -- 71
2019-03-28 20:00:00 18.2 10 Este 19 Este 0 -- -- 72
2019-03-28 19:00:00 18.6 9 Nordeste 17 Este 0 -- -- 71
2019-03-28 18:00:00 18.8 8 Nordeste 16 Nordeste 0 -- -- 72
2019-03-28 17:00:00 18.6 8 Este 19 Norte 0 -- -- 73
2019-03-28 16:00:00 19.3 15 Noroeste 24 Noroeste 0 -- -- 72
2019-03-28 15:00:00 19.1 21 Noroeste 25 Noroeste 0 -- -- 72
2019-03-28 14:00:00 19.7 8 Norte 26 Noroeste 0 -- -- 66
2019-03-28 13:00:00 19.9 15 Norte 23 Noroeste 0 -- -- 68
2019-03-28 12:00:00 19.3 18 Norte 22 Norte 0 -- -- 68
2019-03-28 11:00:00 21.1 7 Sudoeste 15 Sur 0 -- -- 59
2019-03-28 10:00:00 20.3 7 Sudoeste 9 Sudoeste 0 -- -- 54
2019-03-28 09:00:00 20.4 4 Sudeste 13 Este 0 -- -- 48
2019-03-28 08:00:00 17.2 6 Este 16 Este 0 -- -- 50
2019-03-28 07:00:00 16.4 10 Este 15 Este 0 -- -- 47
2019-03-28 06:00:00 15.7 9 Este 15 Este 0 -- -- 55
2019-03-28 05:00:00 16.2 6 Este 17 Este 0 -- -- 56
2019-03-28 04:00:00 16.9 10 Este 17 Este 0 -- -- 56
2019-03-28 03:00:00 17.1 7 Nordeste 17 Este 0 -- -- 59
2019-03-28 02:00:00 17.2 8 Este 16 Sudeste 0 -- -- 60
2019-03-28 01:00:00 17.3 6 Este 19 Este 0 -- -- 62
2019-03-28 00:00:00 17.8 5 Este 14 Nordeste 0 -- -- 64
2019-03-27 23:00:00 18 6 Nordeste 17 Nordeste 0 -- -- 70
2019-03-27 22:00:00 18.7 7 Nordeste 12 Este 0 -- -- 68
2019-03-27 21:00:00 18.8 6 Nordeste 15 Norte 0 -- -- 67
2019-03-27 20:00:00 18.9 8 Norte 14 Nordeste 0 -- -- 66
2019-03-27 19:00:00 19.4 12 Norte 26 Norte 0 -- -- 66
2019-03-27 18:00:00 20.1 17 Norte 26 Norte 0 -- -- 64
2019-03-27 17:00:00 20 16 Norte 23 Norte 0 -- -- 68
2019-03-27 16:00:00 20.3 17 Norte 28 Norte 0 -- -- 66
2019-03-27 15:00:00 20.1 20 Norte 26 Norte 0 -- -- 69
2019-03-27 14:00:00 20.5 17 Norte 20 Norte 0 -- -- 68
2019-03-27 13:00:00 20.1 13 Noroeste 18 Norte 0 -- -- 69
2019-03-27 12:00:00 19.5 7 Norte 13 Noroeste 0 -- -- 71
2019-03-27 11:00:00 19.3 11 Norte 18 Norte 0 -- -- 73
2019-03-27 10:00:00 18.6 12 Norte 15 Norte 0 -- -- 75
2019-03-27 09:00:00 18.4 6 Nordeste 11 Nordeste 0 -- -- 75
2019-03-27 08:00:00 17.8 6 Este 10 Este 0 -- -- 78
2019-03-27 07:00:00 17.6 5 Este 12 Este 0 -- -- 80
2019-03-27 06:00:00 17.6 6 Este 12 Norte 0 -- -- 79
2019-03-27 05:00:00 17.6 9 Este 14 Sudeste 0 -- -- 76
2019-03-27 04:00:00 17.4 6 Este 10 Este 0 -- -- 78
2019-03-27 03:00:00 17.6 7 Este 15 Este 0 -- -- 73
2019-03-27 02:00:00 17.5 8 Este 14 Este 0 -- -- 74
2019-03-27 01:00:00 17.8 7 Este 13 Este 0.2 -- -- 69
2019-03-27 00:00:00 18.2 5 Este 14 Este 0 -- -- 67
2019-03-26 23:00:00 18.2 7 Este 14 Este 0 -- -- 65
2019-03-26 22:00:00 18.2 9 Este 14 Este 0 -- -- 67
2019-03-26 21:00:00 18.5 6 Este 12 Este 0 -- -- 68
2019-03-26 20:00:00 18.6 6 Nordeste 13 Norte 0 -- -- 67
2019-03-26 19:00:00 19.1 9 Norte 12 Norte 0 -- -- 72
2019-03-26 18:00:00 19.2 7 Norte 15 Norte 0 -- -- 71
2019-03-26 17:00:00 20.1 12 Norte 32 Norte 0 -- -- 68
2019-03-26 16:00:00 19.9 22 Norte 27 Norte 0 -- -- 69
2019-03-26 15:00:00 20.1 17 Norte 23 Norte 0 -- -- 68
2019-03-26 14:00:00 20.1 17 Norte 23 Norte 0 -- -- 68
2019-03-26 13:00:00 20.2 16 Norte 19 Norte 0 -- -- 69
2019-03-26 12:00:00 19.6 8 Norte 11 Norte 0 -- -- 66
2019-03-26 11:00:00 18.1 3 Este 11 Norte 0 -- -- 71
2019-03-26 10:00:00 18.3 8 Noroeste 12 Este 0 -- -- 70
2019-03-26 09:00:00 19.6 6 Norte 18 Este 0 -- -- 61
2019-03-26 08:00:00 15.8 13 Este 21 Este 0 -- -- 63
2019-03-26 07:00:00 15.3 13 Este 21 Este 0 -- -- 63
2019-03-26 06:00:00 14.8 15 Este 21 Este 0 -- -- 66
2019-03-26 05:00:00 15.1 10 Este 17 Este 0 -- -- 69
2019-03-26 04:00:00 15.3 12 Este 21 Este 0 -- -- 67
2019-03-26 03:00:00 15.6 5 Este 17 Este 0 -- -- 77
2019-03-26 02:00:00 15.3 9 Este 13 Este 0 -- -- 76
2019-03-26 01:00:00 15.1 9 Este 13 Este 0 -- -- 78
2019-03-26 00:00:00 15.3 2 Este 13 Este 0 -- -- 82
2019-03-25 23:00:00 16 4 Este 9 Este 0 -- -- 82
2019-03-25 22:00:00 16.7 4 Sudeste 7 Sudeste 0 -- -- 80
2019-03-25 21:00:00 16.6 5 Este 12 Norte 0 -- -- 81
2019-03-25 20:00:00 16.6 6 Norte 13 Norte 0 -- -- 80
2019-03-25 19:00:00 16.8 7 Norte 13 Norte 0 -- -- 78
2019-03-25 18:00:00 18.2 5 Norte 8 Norte 0 -- -- 71
2019-03-25 17:00:00 17.5 4 Sudoeste 20 Oeste 0 -- -- 79
2019-03-25 16:00:00 16.7 10 Noroeste 16 Nordeste 1.6 -- -- 83
2019-03-25 15:00:00 16.4 5 Sudoeste 17 Sudoeste 0 -- -- 83
2019-03-25 14:00:00 16.7 14 Sudoeste 33 Sudoeste 0.6 -- -- 80
2019-03-25 13:00:00 16.9 19 Sudoeste 29 Oeste 0 -- -- 80
2019-03-25 12:00:00 18.5 8 Norte 15 Noroeste 0 -- -- 63
2019-03-25 11:00:00 19.1 10 Noroeste 12 Noroeste 0 -- -- 60
2019-03-25 10:00:00 18.7 3 Norte 4 Norte 0 -- -- 54
2019-03-25 09:00:00 17.3 4 Este 12 Este 0 -- -- 52
2019-03-25 08:00:00 16.7 7 Este 17 Este 0 -- -- 52
2019-03-25 07:00:00 16.4 9 Este 16 Este 0 -- -- 52
2019-03-25 06:00:00 16.2 10 Este 18 Este 0 -- -- 55
2019-03-25 05:00:00 16.2 9 Este 13 Este 0 -- -- 65
2019-03-25 04:00:00 16.5 2 Norte 15 Este 0 -- -- 54
2019-03-25 03:00:00 16.3 6 Este 18 Este 0 -- -- 62
2019-03-25 02:00:00 16.2 12 Este 17 Este 0 -- -- 58
2019-03-25 01:00:00 16.2 11 Este 15 Este 0 -- -- 60
2019-03-25 00:00:00 16.7 4 Este 7 Este 0 -- -- 63